Time;durP1;ratioP1;P1;durP2;ratioP2;P2;SDS_P1;SDS_P2;PMS_P1;PMS_P2;Temp;Humidity;BMP_temperature;BMP_pressure;BME280_temperature;BME280_humidity;BME280_pressure;Samples;Min_cycle;Max_cycle;Signal;HPM_P1;HPM_P2
2021/09/29 00:00:28;;;;;;;40.60;37.97;;;;;;;12.71;100.00;101275.13;1941114;74;33500;-66
2021/09/29 00:05:52;;;;;;;40.50;37.80;;;;;;;12.77;100.00;101271.20;1941246;74;33598;-69
2021/09/29 00:11:17;;;;;;;40.30;37.60;;;;;;;12.77;100.00;101255.03;1940982;74;33084;-66
2021/09/29 00:16:42;;;;;;;39.40;36.70;;;;;;;12.71;100.00;101252.00;1941031;74;33100;-66
2021/09/29 00:22:13;;;;;;;39.77;37.10;;;;;;;12.65;100.00;101268.50;1941030;74;33048;-68
2021/09/29 00:27:37;;;;;;;41.37;38.57;;;;;;;12.71;100.00;101263.98;1941244;74;33442;-67
2021/09/29 00:33:04;;;;;;;40.27;37.53;;;;;;;12.72;100.00;101265.66;1941233;74;33480;-66
2021/09/29 00:38:31;;;;;;;42.00;39.20;;;;;;;12.75;100.00;101256.70;1941000;74;33036;-67
2021/09/29 00:43:56;;;;;;;42.33;39.57;;;;;;;12.72;100.00;101248.93;1941273;74;33488;-66
2021/09/29 00:49:22;;;;;;;41.00;38.40;;;;;;;12.81;100.00;101245.52;1941226;74;33508;-66
2021/09/29 00:54:47;;;;;;;40.53;37.73;;;;;;;12.65;100.00;101249.00;1941059;74;33065;-66
2021/09/29 01:00:14;;;;;;;41.57;38.77;;;;;;;12.85;100.00;101271.70;1941028;74;32980;-66
2021/09/29 01:05:42;;;;;;;41.93;39.13;;;;;;;12.74;100.00;101284.89;1941265;74;33539;-67
2021/09/29 01:11:32;;;;;;;41.87;39.03;;;;;;;12.83;100.00;101290.13;2009937;71;33448;-67
2021/09/29 01:16:58;;;;;;;42.57;39.73;;;;;;;12.92;100.00;101300.11;1941231;74;33556;-66
2021/09/29 01:19:39;;;;;;;41.87;39.17;;;;;;;12.88;100.00;101301.80;1905033;75;26303;-66
2021/09/29 01:25:12;;;;;;;41.60;38.70;;;;;;;12.89;100.00;101291.73;1941269;74;33049;-66
2021/09/29 01:30:39;;;;;;;42.30;39.50;;;;;;;12.92;100.00;101288.95;1941033;74;33068;-67
2021/09/29 01:36:05;;;;;;;43.63;40.73;;;;;;;12.90;100.00;101287.00;1941225;74;33028;-66
2021/09/29 01:41:32;;;;;;;42.00;39.10;;;;;;;12.83;100.00;101305.46;1941232;74;33470;-66
2021/09/29 01:46:57;;;;;;;41.90;39.00;;;;;;;12.87;100.00;101316.31;1941029;74;32978;-67
2021/09/29 01:52:45;;;;;;;44.23;41.20;;;;;;;12.81;100.00;101319.40;2010042;71;33197;-67
2021/09/29 01:58:12;;;;;;;41.93;38.93;;;;;;;12.76;100.00;101321.66;1941004;74;33046;-66
2021/09/29 02:03:37;;;;;;;42.70;39.80;;;;;;;12.65;100.00;101335.39;1941239;74;33539;-65
2021/09/29 02:09:02;;;;;;;42.57;39.73;;;;;;;12.56;100.00;101346.86;1941048;74;32989;-68
2021/09/29 02:14:27;;;;;;;44.17;41.17;;;;;;;12.56;100.00;101342.69;1941243;74;32997;-66
2021/09/29 02:19:52;;;;;;;44.27;41.27;;;;;;;12.44;100.00;101356.13;1941065;74;32986;-68
2021/09/29 02:25:16;;;;;;;44.57;41.43;;;;;;;12.35;100.00;101364.80;1941111;74;33044;-68
2021/09/29 02:30:41;;;;;;;42.60;39.70;;;;;;;12.30;100.00;101371.22;1941236;74;33043;-66
2021/09/29 02:36:07;;;;;;;43.73;40.73;;;;;;;12.12;100.00;101374.61;1941220;74;33530;-66
2021/09/29 02:41:31;;;;;;;43.17;40.20;;;;;;;12.10;100.00;101390.23;1941032;74;32993;-66
2021/09/29 02:47:15;;;;;;;42.83;39.90;;;;;;;12.14;100.00;101391.33;2009883;71;32833;-66
2021/09/29 02:52:40;;;;;;;43.93;41.03;;;;;;;11.98;100.00;101402.78;1941129;74;33465;-66
2021/09/29 02:58:09;;;;;;;42.83;39.90;;;;;;;11.98;100.00;101402.78;1941174;74;33464;-66
2021/09/29 03:03:34;;;;;;;44.90;41.90;;;;;;;11.86;100.00;101412.80;1940913;74;33093;-68
2021/09/29 03:08:58;;;;;;;43.20;40.20;;;;;;;11.81;100.00;101415.03;1940950;74;33046;-68
2021/09/29 03:14:23;;;;;;;42.00;39.07;;;;;;;11.69;100.00;101417.80;1941060;74;32990;-68
2021/09/29 03:19:48;;;;;;;43.50;40.30;;;;;;;11.69;100.00;101416.40;1941093;74;33041;-66
2021/09/29 03:25:11;;;;;;;42.30;39.40;;;;;;;11.56;100.00;101430.31;1941075;74;33080;-66
2021/09/29 03:30:38;;;;;;;42.47;39.57;;;;;;;11.54;100.00;101434.50;1941222;74;33482;-66
2021/09/29 03:36:03;;;;;;;41.97;39.07;;;;;;;11.52;100.00;101440.33;1941099;74;32988;-69
2021/09/29 03:41:28;;;;;;;43.87;40.87;;;;;;;11.47;100.00;101455.62;1941220;74;33000;-66
2021/09/29 03:46:53;;;;;;;42.60;39.50;;;;;;;11.40;100.00;101457.30;1941237;74;33485;-69
2021/09/29 03:52:17;;;;;;;42.30;39.40;;;;;;;11.22;100.00;101470.87;1941207;74;33095;-66
2021/09/29 03:57:42;;;;;;;42.47;39.47;;;;;;;11.18;100.00;101481.72;1941019;74;33100;-66
2021/09/29 04:03:11;;;;;;;40.23;37.43;;;;;;;11.14;100.00;101484.77;1941229;74;33485;-66
2021/09/29 04:08:35;;;;;;;41.67;38.77;;;;;;;11.16;100.00;101493.69;1940919;74;32978;-66
2021/09/29 04:14:02;;;;;;;41.60;38.60;;;;;;;11.06;100.00;101501.98;1941230;74;33484;-68
2021/09/29 04:19:28;;;;;;;41.87;39.07;;;;;;;11.07;100.00;101508.38;1941173;74;33532;-68
2021/09/29 04:24:52;;;;;;;43.10;40.10;;;;;;;11.01;100.00;101518.64;1941220;74;33503;-66
2021/09/29 04:30:17;;;;;;;42.20;39.40;;;;;;;10.96;100.00;101526.40;1941079;74;33056;-68
2021/09/29 04:35:42;;;;;;;42.27;39.37;;;;;;;10.97;100.00;101542.53;1941215;74;33453;-68
2021/09/29 04:41:12;;;;;;;45.30;42.03;;;;;;;10.85;100.00;101547.48;1941090;74;32999;-66
2021/09/29 04:46:37;;;;;;;43.67;40.57;;;;;;;10.85;100.00;101551.65;1941196;74;33454;-68
2021/09/29 04:52:01;;;;;;;43.57;40.50;;;;;;;10.82;100.00;101558.59;1941182;74;33620;-67
2021/09/29 04:57:28;;;;;;;43.83;40.57;;;;;;;10.66;100.00;101568.47;1941259;74;33566;-66
2021/09/29 05:02:53;;;;;;;44.77;41.77;;;;;;;10.70;100.00;101579.33;1941120;74;32993;-65
2021/09/29 05:08:24;;;;;;;42.20;39.30;;;;;;;10.61;100.00;101585.13;1940996;74;32996;-66
2021/09/29 05:13:56;;;;;;;42.90;40.10;;;;;;;10.56;100.00;101590.09;1941150;74;33009;-68
2021/09/29 05:19:23;;;;;;;44.27;41.17;;;;;;;10.63;100.00;101597.64;1941336;74;32991;-68
2021/09/29 05:24:49;;;;;;;44.33;41.43;;;;;;;10.56;100.00;101611.48;1941200;74;33469;-69
2021/09/29 05:30:14;;;;;;;44.43;41.30;;;;;;;10.37;100.00;101623.00;1941094;74;32991;-66
2021/09/29 05:35:41;;;;;;;42.43;39.47;;;;;;;10.21;100.00;101625.37;1941239;74;33581;-66
2021/09/29 05:41:05;;;;;;;43.80;40.60;;;;;;;10.25;100.00;101636.77;1941135;74;32978;-66
2021/09/29 05:46:31;;;;;;;42.20;39.00;;;;;;;10.09;100.00;101651.05;1941212;74;33094;-66
2021/09/29 05:51:56;;;;;;;43.47;40.13;;;;;;;10.08;100.00;101659.63;1941011;74;33045;-66
2021/09/29 05:57:21;;;;;;;44.30;41.17;;;;;;;10.06;100.00;101670.43;1941173;74;33065;-66
2021/09/29 06:02:48;;;;;;;43.73;40.73;;;;;;;10.04;100.00;101678.74;1941138;74;33091;-65
2021/09/29 06:08:13;;;;;;;42.77;39.87;;;;;;;9.92;100.00;101690.00;1941270;74;33470;-68
2021/09/29 06:13:37;;;;;;;43.27;40.00;;;;;;;9.96;100.00;101705.03;1941254;74;33458;-68
2021/09/29 06:19:04;;;;;;;41.90;38.80;;;;;;;9.93;100.00;101711.63;1941272;74;33471;-66
2021/09/29 06:24:29;;;;;;;44.57;41.47;;;;;;;9.85;100.00;101717.64;1941141;74;33064;-69
2021/09/29 06:29:55;;;;;;;42.93;39.83;;;;;;;9.98;100.00;101735.28;1941279;74;33041;-69
2021/09/29 06:35:20;;;;;;;45.97;42.70;;;;;;;9.96;100.00;101737.50;1941234;74;33068;-68
2021/09/29 06:40:45;;;;;;;44.27;41.27;;;;;;;9.89;100.00;101739.06;1941238;74;33488;-68
2021/09/29 06:46:12;;;;;;;43.90;40.93;;;;;;;10.04;100.00;101739.27;1940989;74;33182;-69
2021/09/29 06:51:56;;;;;;;43.77;40.90;;;;;;;10.20;100.00;101750.02;2016820;71;32954;-66
2021/09/29 06:57:21;;;;;;;44.33;41.23;;;;;;;10.26;100.00;101750.38;1941022;74;32994;-68
2021/09/29 07:02:52;;;;;;;43.00;40.10;;;;;;;10.21;100.00;101760.03;1941075;74;32992;-69
2021/09/29 07:08:36;;;;;;;43.10;40.20;;;;;;;10.46;100.00;101770.02;2009812;71;32911;-67
2021/09/29 07:14:02;;;;;;;43.43;40.27;;;;;;;10.39;100.00;101785.22;1941007;74;33057;-69
2021/09/29 07:19:28;;;;;;;43.20;40.40;;;;;;;10.55;100.00;101788.98;1941100;74;32978;-70
2021/09/29 07:24:55;;;;;;;43.53;40.73;;;;;;;10.62;100.00;101801.56;1941020;74;32992;-68
2021/09/29 07:30:19;;;;;;;45.23;42.30;;;;;;;10.71;100.00;101808.88;1941021;74;33024;-69
2021/09/29 07:35:47;;;;;;;44.53;41.57;;;;;;;10.86;100.00;101815.98;1941023;74;33076;-68
2021/09/29 07:41:12;;;;;;;45.07;42.23;;;;;;;11.13;100.00;101813.98;1941196;74;33761;-67
2021/09/29 07:46:37;;;;;;;41.43;38.80;;;;;;;11.30;100.00;101831.91;1941198;74;33682;-66
2021/09/29 07:52:01;;;;;;;42.07;39.27;;;;;;;11.48;100.00;101830.11;1941028;74;32984;-66
2021/09/29 07:57:26;;;;;;;40.90;38.50;;;;;;;11.73;100.00;101833.09;1941121;74;32986;-66
2021/09/29 08:02:52;;;;;;;40.03;37.50;;;;;;;12.12;100.00;101837.75;1941062;74;33053;-68
2021/09/29 08:08:17;;;;;;;41.23;38.80;;;;;;;12.33;100.00;101840.91;1941224;74;33462;-66
2021/09/29 08:13:44;;;;;;;41.47;38.87;;;;;;;12.48;100.00;101842.92;1941040;74;33050;-67
2021/09/29 08:19:09;;;;;;;40.10;37.40;;;;;;;12.79;100.00;101852.21;1941002;74;33071;-66
2021/09/29 08:24:39;;;;;;;38.83;36.27;;;;;;;12.68;100.00;101854.67;1941192;74;32967;-67
2021/09/29 08:30:15;;;;;;;40.57;37.77;;;;;;;12.73;100.00;101859.72;1941018;74;33031;-66
2021/09/29 08:35:55;;;;;;;39.63;37.23;;;;;;;12.86;100.00;101866.72;1941296;74;33472;-69
2021/09/29 08:41:39;;;;;;;38.13;35.73;;;;;;;12.95;100.00;101870.64;1941098;74;33068;-67
2021/09/29 08:47:09;;;;;;;37.87;35.50;;;;;;;13.11;100.00;101872.36;1941247;74;33465;-67
2021/09/29 08:52:44;;;;;;;38.27;35.87;;;;;;;13.19;100.00;101875.16;1940998;74;32969;-66
2021/09/29 09:15:45;;;;;;;41.70;39.40;;;;;;;13.44;100.00;101904.47;1941046;74;33059;-66
2021/09/29 09:21:09;;;;;;;46.60;43.80;;;;;;;13.65;100.00;101915.91;1941135;74;33128;-70
2021/09/29 09:26:32;;;;;;;42.07;39.57;;;;;;;13.96;100.00;101913.08;1941041;74;33123;-66
2021/09/29 09:32:14;;;;;;;38.63;36.57;;;;;;;13.79;100.00;101918.13;1941231;74;33466;-66
2021/09/29 09:37:44;;;;;;;40.07;37.87;;;;;;;13.77;100.00;101922.63;1941254;74;33039;-67
2021/09/29 09:43:14;;;;;;;33.90;32.00;;;;;;;13.86;100.00;101919.52;1941072;74;33014;-70
2021/09/29 09:48:40;;;;;;;32.00;30.27;;;;;;;13.73;100.00;101920.67;1941293;74;33667;-70
2021/09/29 09:54:07;;;;;;;30.90;29.20;;;;;;;13.90;100.00;101933.23;1941024;74;33020;-66
2021/09/29 09:59:32;;;;;;;30.83;28.83;;;;;;;14.11;100.00;101939.05;1941248;74;33448;-66
2021/09/29 10:04:58;;;;;;;29.07;27.47;;;;;;;14.01;100.00;101951.63;1941294;74;33524;-67
2021/09/29 10:10:28;;;;;;;28.87;27.37;;;;;;;14.13;100.00;101952.17;1941061;74;33019;-67
2021/09/29 10:27:24;;;;;;;28.03;26.63;;;;;;;14.09;100.00;101979.56;1941276;74;33493;-67
2021/09/29 10:33:03;;;;;;;24.30;23.10;;;;;;;14.46;100.00;101982.05;1941146;74;33069;-66
2021/09/29 10:44:21;;;;;;;23.50;22.20;;;;;;;14.31;100.00;101991.83;1941235;74;33543;-70
2021/09/29 10:50:12;;;;;;;25.50;23.87;;;;;;;14.25;100.00;101991.58;1941049;74;32997;-68
2021/09/29 11:30:26;;;;;;;19.40;18.20;;;;;;;15.20;100.00;102039.38;1941060;74;32991;-67
2021/09/29 11:36:00;;;;;;;19.60;18.63;;;;;;;15.44;100.00;102057.19;1941036;74;33054;-67
2021/09/29 12:10:09;;;;;;;16.57;15.77;;;;;;;15.68;100.00;102081.72;1941123;74;33106;-67
2021/09/29 12:15:44;;;;;;;17.23;16.53;;;;;;;15.78;100.00;102085.30;1940972;74;33013;-67
2021/09/29 12:21:10;;;;;;;17.00;16.17;;;;;;;15.59;100.00;102089.05;1941222;74;33600;-66
2021/09/29 12:26:52;;;;;;;16.80;16.00;;;;;;;15.77;100.00;102089.78;1941261;74;33598;-67
2021/09/29 12:32:31;;;;;;;17.23;16.40;;;;;;;15.24;100.00;102107.66;1941280;74;33638;-67
2021/09/29 12:38:04;;;;;;;17.13;16.23;;;;;;;15.22;100.00;102118.88;1941138;74;32998;-67
2021/09/29 12:43:29;;;;;;;16.93;16.07;;;;;;;15.93;100.00;102110.97;1925072;74;38457;-67
2021/09/29 12:48:54;;;;;;;13.87;13.27;;;;;;;15.80;100.00;102108.81;1941116;74;32989;-66
2021/09/29 12:54:21;;;;;;;13.20;12.60;;;;;;;15.59;100.00;102119.86;1941224;74;33527;-67
2021/09/29 12:59:46;;;;;;;12.37;11.73;;;;;;;15.51;100.00;102121.86;1941131;74;33068;-68
2021/09/29 13:05:12;;;;;;;12.40;11.70;;;;;;;15.72;100.00;102116.42;1941255;74;33602;-66
2021/09/29 13:10:38;;;;;;;13.13;12.53;;;;;;;15.87;100.00;102133.97;1941084;74;32992;-66
2021/09/29 13:16:06;;;;;;;14.43;13.83;;;;;;;15.62;100.00;102136.08;1941026;74;33053;-67
2021/09/29 13:21:35;;;;;;;14.80;14.20;;;;;;;15.93;100.00;102134.23;1941078;74;32984;-68
2021/09/29 13:27:10;;;;;;;11.50;10.90;;;;;;;16.03;100.00;102145.94;1941249;74;33537;-67
2021/09/29 13:38:32;;;;;;;11.70;11.20;;;;;;;15.77;100.00;102159.83;1940995;74;32962;-67
2021/09/29 13:43:56;;;;;;;11.70;11.10;;;;;;;15.87;100.00;102163.98;1941259;74;33462;-67
2021/09/29 13:49:22;;;;;;;12.03;11.40;;;;;;;16.00;100.00;102170.92;1941243;74;33641;-67
2021/09/29 13:54:49;;;;;;;11.40;10.83;;;;;;;15.95;100.00;102168.98;1941160;74;33539;-66
2021/09/29 14:00:25;;;;;;;10.60;10.10;;;;;;;15.77;100.00;102182.24;1941243;74;33532;-66
2021/09/29 14:28:52;;;;;;;11.90;11.20;;;;;;;15.53;100.00;102218.50;1941020;74;33051;-66
2021/09/29 14:34:14;;;;;;;11.40;10.80;;;;;;;15.91;100.00;102215.53;1941047;74;32956;-67
2021/09/29 14:39:40;;;;;;;10.90;10.30;;;;;;;16.21;100.00;102213.11;1941115;74;33042;-67
2021/09/29 14:45:06;;;;;;;11.40;10.80;;;;;;;15.89;100.00;102237.38;1941280;74;33633;-67
2021/09/29 14:50:31;;;;;;;11.07;10.37;;;;;;;15.47;100.00;102247.03;1941006;74;33123;-67
2021/09/29 14:55:57;;;;;;;11.57;10.97;;;;;;;15.18;100.00;102261.94;1941022;74;32978;-67
2021/09/29 15:01:23;;;;;;;12.57;11.97;;;;;;;15.06;100.00;102268.39;1941068;74;33045;-67
2021/09/29 15:06:48;;;;;;;11.73;11.13;;;;;;;15.15;100.00;102254.92;1941264;74;33036;-66
2021/09/29 15:12:33;;;;;;;11.67;11.17;;;;;;;15.36;100.00;102262.75;1995270;71;33367;-68
2021/09/29 15:18:01;;;;;;;11.37;10.70;;;;;;;15.59;100.00;102271.11;1941222;74;33524;-66
2021/09/29 15:23:37;;;;;;;11.67;11.07;;;;;;;15.70;100.00;102267.98;1943198;74;33472;-67
2021/09/29 15:29:16;;;;;;;11.50;10.83;;;;;;;15.73;100.00;102274.44;1941223;74;33470;-69
2021/09/29 15:51:49;;;;;;;11.20;10.70;;;;;;;16.00;100.00;102286.67;1941046;74;33065;-67
2021/09/29 15:57:29;;;;;;;11.30;10.70;;;;;;;15.98;100.00;102297.87;1941017;74;33096;-67
2021/09/29 16:02:59;;;;;;;11.43;10.60;;;;;;;15.92;100.00;102309.66;1941051;74;32961;-67
2021/09/29 16:08:28;;;;;;;12.07;11.47;;;;;;;15.17;100.00;102325.47;1941174;74;33031;-68
2021/09/29 16:31:36;;;;;;;12.40;11.50;;;;;;;15.46;100.00;102343.92;1941194;74;33622;-69
2021/09/29 16:37:02;;;;;;;12.43;11.70;;;;;;;16.45;100.00;102352.06;1941252;74;33584;-66
2021/09/29 16:42:28;;;;;;;10.97;10.20;;;;;;;15.52;100.00;102350.41;1941225;74;33590;-66
2021/09/29 16:47:55;;;;;;;12.00;11.20;;;;;;;15.40;100.00;102357.08;1941223;74;33464;-66
2021/09/29 16:53:21;;;;;;;12.10;11.30;;;;;;;15.32;100.00;102366.61;1941262;74;33535;-68
2021/09/29 16:58:48;;;;;;;12.90;12.03;;;;;;;15.21;100.00;102365.78;1941245;74;33629;-67
2021/09/29 17:04:13;;;;;;;12.03;11.50;;;;;;;14.94;100.00;102374.98;1851199;71;33207;-77
2021/09/29 17:09:40;;;;;;;13.23;12.57;;;;;;;14.91;100.00;102380.59;1941482;74;33588;-76
2021/09/29 17:15:24;;;;;;;12.67;12.07;;;;;;;14.47;100.00;102401.15;2015101;71;33503;-79
2021/09/29 17:20:51;;;;;;;12.50;11.90;;;;;;;14.48;100.00;102402.00;1941254;74;33477;-74
2021/09/29 17:26:16;;;;;;;12.60;11.80;;;;;;;14.25;100.00;102419.20;1940891;74;32971;-67
2021/09/29 17:31:48;;;;;;;13.37;12.57;;;;;;;14.20;100.00;102433.15;1941000;74;33079;-69
2021/09/29 17:37:20;;;;;;;13.10;12.37;;;;;;;14.33;100.00;102444.69;1940953;74;33038;-70
2021/09/29 17:54:20;;;;;;;13.07;12.30;;;;;;;13.94;100.00;102480.49;1941126;74;33527;-70
2021/09/29 17:59:47;;;;;;;12.60;11.70;;;;;;;13.95;100.00;102483.55;1940934;74;32985;-77
2021/09/29 18:05:15;;;;;;;12.20;11.50;;;;;;;13.86;100.00;102490.74;1941195;74;33098;-74
2021/09/29 18:10:39;;;;;;;12.73;12.03;;;;;;;13.69;100.00;102488.67;1941238;74;32983;-74
2021/09/29 18:16:04;;;;;;;12.80;12.10;;;;;;;13.78;100.00;102475.06;1940944;74;33052;-69
2021/09/29 18:21:29;;;;;;;12.10;11.30;;;;;;;13.67;100.00;102488.09;1940923;74;32984;-69
2021/09/29 18:26:54;;;;;;;12.83;11.93;;;;;;;13.41;100.00;102499.57;1940865;74;33077;-69
2021/09/29 18:32:19;;;;;;;12.40;11.60;;;;;;;13.41;100.00;102500.12;1940896;74;32977;-77
2021/09/29 18:37:45;;;;;;;12.73;11.93;;;;;;;13.25;100.00;102513.09;1941455;74;33117;-76
2021/09/29 18:43:14;;;;;;;13.03;12.13;;;;;;;13.33;100.00;102517.34;1941368;74;33033;-76
2021/09/29 18:48:39;;;;;;;12.30;11.70;;;;;;;13.03;100.00;102531.22;1941096;74;33495;-73
2021/09/29 18:54:07;;;;;;;13.07;12.20;;;;;;;12.95;100.00;102533.62;1941111;74;33429;-66
2021/09/29 19:11:01;;;;;;;15.00;14.20;;;;;;;12.42;100.00;102535.13;1941058;74;32991;-72
2021/09/29 19:16:26;;;;;;;16.83;15.60;;;;;;;12.12;100.00;102556.95;1941040;74;33481;-66
2021/09/29 19:21:50;;;;;;;16.90;15.73;;;;;;;12.41;100.00;102554.92;1940839;74;33009;-73
2021/09/29 19:27:16;;;;;;;16.60;15.80;;;;;;;12.22;100.00;102553.80;1941138;74;33621;-67
2021/09/29 19:32:46;;;;;;;17.43;16.47;;;;;;;12.19;100.00;102550.69;1941035;74;33502;-65
2021/09/29 19:38:10;;;;;;;18.60;17.40;;;;;;;11.97;100.00;102558.97;1941060;74;33486;-66
2021/09/29 19:43:38;;;;;;;18.63;17.53;;;;;;;11.87;100.00;102555.99;1940958;74;33078;-73
2021/09/29 19:49:12;;;;;;;18.33;17.20;;;;;;;12.19;100.00;102549.30;1941452;74;33517;-74
2021/09/29 20:11:43;;;;;;;21.83;20.27;;;;;;;11.65;100.00;102574.48;1941085;74;33555;-76
2021/09/29 20:17:11;;;;;;;23.00;21.70;;;;;;;11.57;100.00;102572.12;1941076;74;33059;-75
2021/09/29 20:22:35;;;;;;;23.47;22.07;;;;;;;11.65;100.00;102581.45;1940829;74;33119;-68
2021/09/29 20:28:02;;;;;;;25.47;23.97;;;;;;;11.28;100.00;102583.81;1940815;74;32998;-68
2021/09/29 20:33:35;;;;;;;23.77;22.57;;;;;;;11.34;100.00;102594.78;1941078;74;32988;-74
2021/09/29 20:44:52;;;;;;;26.70;25.07;;;;;;;11.15;100.00;102580.77;1941220;74;33047;-74
2021/09/29 20:50:20;;;;;;;24.30;22.90;;;;;;;11.35;100.00;102589.52;1940899;74;33093;-68
2021/09/29 20:55:44;;;;;;;23.00;21.67;;;;;;;11.34;100.00;102579.48;1941563;74;33065;-74
2021/09/29 21:01:16;;;;;;;22.00;20.80;;;;;;;11.43;100.00;102587.73;1941057;74;33550;-69
2021/09/29 21:06:41;;;;;;;23.00;21.50;;;;;;;11.49;100.00;102595.64;1940844;74;33096;-69
2021/09/29 21:12:11;;;;;;;23.03;21.63;;;;;;;11.31;100.00;102601.39;1941009;74;33464;-75
2021/09/29 21:17:52;;;;;;;24.77;23.17;;;;;;;11.26;100.00;102599.89;1940908;74;32989;-77
2021/09/29 21:23:19;;;;;;;24.07;22.70;;;;;;;11.26;100.00;102604.06;1941212;74;32993;-74
2021/09/29 21:28:43;;;;;;;26.30;24.70;;;;;;;11.18;100.00;102605.84;1940879;74;33006;-68
2021/09/29 21:34:09;;;;;;;24.13;22.73;;;;;;;11.09;100.00;102605.39;1941088;74;33457;-77
2021/09/29 21:39:46;;;;;;;27.13;25.33;;;;;;;11.01;100.00;102607.16;1940817;74;32969;-68
2021/09/29 22:02:35;;;;;;;24.30;22.60;;;;;;;11.00;100.00;102624.08;1941442;74;33538;-75
2021/09/29 22:14:06;;;;;;;25.37;23.87;;;;;;;11.00;100.00;102617.13;1941413;74;33482;-75
2021/09/29 22:19:41;;;;;;;29.50;27.80;;;;;;;10.87;100.00;102623.80;1941206;74;33061;-75
2021/09/29 22:42:32;;;;;;;45.93;43.33;;;;;;;10.61;100.00;102637.66;1941406;74;32958;-73
2021/09/29 23:05:23;;;;;;;40.70;38.40;;;;;;;10.63;100.00;102636.05;1940909;74;32979;-68
2021/09/29 23:10:47;;;;;;;41.20;38.70;;;;;;;10.60;100.00;102648.50;1941074;74;33018;-68
2021/09/29 23:33:51;;;;;;;46.03;43.43;;;;;;;10.14;100.00;102648.42;1941231;74;33006;-74
2021/09/29 23:39:15;;;;;;;47.03;44.50;;;;;;;10.19;100.00;102645.25;1940882;74;32988;-77
2021/09/29 23:44:40;;;;;;;47.80;44.93;;;;;;;9.82;100.00;102645.92;1941151;74;33042;-77
2021/09/29 23:50:07;;;;;;;46.40;43.60;;;;;;;9.67;100.00;102632.19;1941174;74;33423;-68
2021/09/29 23:55:31;;;;;;;46.57;43.80;;;;;;;9.81;100.00;102637.28;1941364;74;33001;-73
